sensor_id;sensor_type;location;lat;lon;timestamp;P1;durP1;ratioP1;P2;durP2;ratioP2
69629;SDS011;56857;52.212;5.496;2023-03-01T00:02:12;17.35;;;9.48;;
69629;SDS011;56857;52.212;5.496;2023-03-01T00:04:38;17.70;;;9.55;;
69629;SDS011;56857;52.212;5.496;2023-03-01T00:07:04;15.60;;;9.65;;
69629;SDS011;56857;52.212;5.496;2023-03-01T00:11:54;17.13;;;9.40;;
69629;SDS011;56857;52.212;5.496;2023-03-01T00:14:20;24.50;;;10.30;;
69629;SDS011;56857;52.212;5.496;2023-03-01T00:19:15;16.85;;;10.23;;
69629;SDS011;56857;52.212;5.496;2023-03-01T00:21:42;16.40;;;10.50;;
69629;SDS011;56857;52.212;5.496;2023-03-01T00:26:33;16.10;;;9.85;;
69629;SDS011;56857;52.212;5.496;2023-03-01T00:31:25;18.40;;;10.68;;
69629;SDS011;56857;52.212;5.496;2023-03-01T00:33:53;17.92;;;11.27;;
69629;SDS011;56857;52.212;5.496;2023-03-01T00:36:19;16.33;;;10.10;;
69629;SDS011;56857;52.212;5.496;2023-03-01T00:41:13;17.95;;;10.88;;
69629;SDS011;56857;52.212;5.496;2023-03-01T00:43:41;19.27;;;11.23;;
69629;SDS011;56857;52.212;5.496;2023-03-01T00:46:12;16.98;;;11.80;;
69629;SDS011;56857;52.212;5.496;2023-03-01T00:48:39;19.40;;;11.65;;
69629;SDS011;56857;52.212;5.496;2023-03-01T00:53:38;16.10;;;10.18;;
69629;SDS011;56857;52.212;5.496;2023-03-01T00:58:30;16.52;;;11.02;;
69629;SDS011;56857;52.212;5.496;2023-03-01T01:03:21;18.27;;;11.30;;
69629;SDS011;56857;52.212;5.496;2023-03-01T01:05:47;20.90;;;11.60;;
69629;SDS011;56857;52.212;5.496;2023-03-01T01:10:37;18.83;;;11.20;;
69629;SDS011;56857;52.212;5.496;2023-03-01T01:13:03;21.90;;;14.13;;
69629;SDS011;56857;52.212;5.496;2023-03-01T01:15:29;18.88;;;12.07;;
69629;SDS011;56857;52.212;5.496;2023-03-01T01:17:58;17.98;;;11.13;;
69629;SDS011;56857;52.212;5.496;2023-03-01T01:22:50;19.60;;;10.98;;
69629;SDS011;56857;52.212;5.496;2023-03-01T01:25:15;17.13;;;11.25;;
69629;SDS011;56857;52.212;5.496;2023-03-01T01:30:07;18.90;;;11.38;;
69629;SDS011;56857;52.212;5.496;2023-03-01T01:34:58;21.60;;;11.98;;
69629;SDS011;56857;52.212;5.496;2023-03-01T01:39:49;20.80;;;12.07;;
69629;SDS011;56857;52.212;5.496;2023-03-01T01:42:15;18.52;;;12.25;;
69629;SDS011;56857;52.212;5.496;2023-03-01T01:44:42;20.30;;;11.35;;
69629;SDS011;56857;52.212;5.496;2023-03-01T01:47:15;20.25;;;11.85;;
69629;SDS011;56857;52.212;5.496;2023-03-01T01:49:56;20.40;;;12.95;;
69629;SDS011;56857;52.212;5.496;2023-03-01T01:52:23;19.20;;;12.48;;
69629;SDS011;56857;52.212;5.496;2023-03-01T01:55:00;21.17;;;13.07;;
69629;SDS011;56857;52.212;5.496;2023-03-01T01:57:43;19.55;;;12.30;;
69629;SDS011;56857;52.212;5.496;2023-03-01T02:00:21;21.00;;;12.82;;
69629;SDS011;56857;52.212;5.496;2023-03-01T02:02:49;21.42;;;11.85;;
69629;SDS011;56857;52.212;5.496;2023-03-01T02:08:02;23.83;;;14.52;;
69629;SDS011;56857;52.212;5.496;2023-03-01T02:12:54;22.58;;;13.00;;
69629;SDS011;56857;52.212;5.496;2023-03-01T02:15:21;24.67;;;13.23;;
69629;SDS011;56857;52.212;5.496;2023-03-01T02:17:47;21.50;;;13.30;;
69629;SDS011;56857;52.212;5.496;2023-03-01T02:22:50;22.25;;;13.27;;
69629;SDS011;56857;52.212;5.496;2023-03-01T02:30:26;22.00;;;13.07;;
69629;SDS011;56857;52.212;5.496;2023-03-01T02:32:52;22.63;;;13.43;;
69629;SDS011;56857;52.212;5.496;2023-03-01T02:35:20;25.25;;;14.75;;
69629;SDS011;56857;52.212;5.496;2023-03-01T02:40:17;22.85;;;13.52;;
69629;SDS011;56857;52.212;5.496;2023-03-01T02:42:51;24.02;;;13.43;;
69629;SDS011;56857;52.212;5.496;2023-03-01T02:45:20;26.48;;;15.55;;
69629;SDS011;56857;52.212;5.496;2023-03-01T02:55:29;20.10;;;12.75;;
69629;SDS011;56857;52.212;5.496;2023-03-01T03:00:28;24.20;;;13.27;;
69629;SDS011;56857;52.212;5.496;2023-03-01T03:02:59;22.90;;;14.00;;
69629;SDS011;56857;52.212;5.496;2023-03-01T03:07:56;24.88;;;14.43;;
69629;SDS011;56857;52.212;5.496;2023-03-01T03:10:23;21.58;;;12.82;;
69629;SDS011;56857;52.212;5.496;2023-03-01T03:12:52;26.67;;;13.98;;
69629;SDS011;56857;52.212;5.496;2023-03-01T03:15:28;25.67;;;14.32;;
69629;SDS011;56857;52.212;5.496;2023-03-01T03:17:56;23.67;;;13.73;;
69629;SDS011;56857;52.212;5.496;2023-03-01T03:20:24;23.73;;;13.07;;
69629;SDS011;56857;52.212;5.496;2023-03-01T03:22:52;23.67;;;13.35;;
69629;SDS011;56857;52.212;5.496;2023-03-01T03:25:18;24.10;;;14.77;;
69629;SDS011;56857;52.212;5.496;2023-03-01T03:30:13;23.77;;;13.05;;
69629;SDS011;56857;52.212;5.496;2023-03-01T03:32:44;23.20;;;14.50;;
69629;SDS011;56857;52.212;5.496;2023-03-01T03:35:11;24.90;;;13.30;;
69629;SDS011;56857;52.212;5.496;2023-03-01T03:40:03;24.45;;;14.15;;
69629;SDS011;56857;52.212;5.496;2023-03-01T03:44:54;26.10;;;14.52;;
69629;SDS011;56857;52.212;5.496;2023-03-01T03:47:20;25.38;;;14.27;;
69629;SDS011;56857;52.212;5.496;2023-03-01T03:52:10;22.17;;;13.00;;
69629;SDS011;56857;52.212;5.496;2023-03-01T03:57:01;29.97;;;12.80;;
69629;SDS011;56857;52.212;5.496;2023-03-01T04:01:52;25.40;;;13.87;;
69629;SDS011;56857;52.212;5.496;2023-03-01T04:04:17;23.73;;;13.80;;
69629;SDS011;56857;52.212;5.496;2023-03-01T04:09:07;21.33;;;13.53;;
69629;SDS011;56857;52.212;5.496;2023-03-01T04:13:58;27.17;;;13.87;;
69629;SDS011;56857;52.212;5.496;2023-03-01T04:18:49;28.50;;;14.25;;
69629;SDS011;56857;52.212;5.496;2023-03-01T04:21:14;25.73;;;15.60;;
69629;SDS011;56857;52.212;5.496;2023-03-01T04:23:40;26.70;;;15.55;;
69629;SDS011;56857;52.212;5.496;2023-03-01T04:26:05;26.70;;;14.57;;
69629;SDS011;56857;52.212;5.496;2023-03-01T04:31:03;26.50;;;15.18;;
69629;SDS011;56857;52.212;5.496;2023-03-01T04:33:32;29.25;;;15.95;;
69629;SDS011;56857;52.212;5.496;2023-03-01T04:38:23;31.02;;;16.98;;
69629;SDS011;56857;52.212;5.496;2023-03-01T04:43:14;31.13;;;14.80;;
69629;SDS011;56857;52.212;5.496;2023-03-01T04:45:39;26.77;;;15.05;;
69629;SDS011;56857;52.212;5.496;2023-03-01T04:50:30;25.48;;;14.48;;
69629;SDS011;56857;52.212;5.496;2023-03-01T04:52:56;24.25;;;13.02;;
69629;SDS011;56857;52.212;5.496;2023-03-01T04:55:21;26.80;;;13.53;;
69629;SDS011;56857;52.212;5.496;2023-03-01T04:57:46;24.38;;;14.02;;
69629;SDS011;56857;52.212;5.496;2023-03-01T05:00:12;22.87;;;14.40;;
69629;SDS011;56857;52.212;5.496;2023-03-01T05:02:39;25.40;;;15.38;;
69629;SDS011;56857;52.212;5.496;2023-03-01T05:07:30;23.83;;;13.98;;
69629;SDS011;56857;52.212;5.496;2023-03-01T05:09:55;24.13;;;14.82;;
69629;SDS011;56857;52.212;5.496;2023-03-01T05:12:20;23.85;;;14.07;;
69629;SDS011;56857;52.212;5.496;2023-03-01T05:14:46;26.75;;;14.70;;
69629;SDS011;56857;52.212;5.496;2023-03-01T05:17:11;25.83;;;15.52;;
69629;SDS011;56857;52.212;5.496;2023-03-01T05:22:01;25.13;;;13.57;;
69629;SDS011;56857;52.212;5.496;2023-03-01T05:26:54;33.47;;;16.17;;
69629;SDS011;56857;52.212;5.496;2023-03-01T05:29:21;32.78;;;17.92;;
69629;SDS011;56857;52.212;5.496;2023-03-01T05:31:48;28.45;;;16.67;;
69629;SDS011;56857;52.212;5.496;2023-03-01T05:36:39;26.87;;;15.47;;
69629;SDS011;56857;52.212;5.496;2023-03-01T05:39:04;24.80;;;14.63;;
69629;SDS011;56857;52.212;5.496;2023-03-01T05:41:29;26.05;;;15.52;;
69629;SDS011;56857;52.212;5.496;2023-03-01T05:43:55;24.88;;;16.02;;
69629;SDS011;56857;52.212;5.496;2023-03-01T05:46:20;29.47;;;15.87;;
69629;SDS011;56857;52.212;5.496;2023-03-01T05:48:45;27.13;;;16.13;;
69629;SDS011;56857;52.212;5.496;2023-03-01T05:51:11;29.77;;;16.60;;
69629;SDS011;56857;52.212;5.496;2023-03-01T05:53:36;24.95;;;15.43;;
69629;SDS011;56857;52.212;5.496;2023-03-01T05:56:04;25.90;;;15.43;;
69629;SDS011;56857;52.212;5.496;2023-03-01T05:58:30;25.50;;;15.52;;
69629;SDS011;56857;52.212;5.496;2023-03-01T06:00:55;22.00;;;14.60;;
69629;SDS011;56857;52.212;5.496;2023-03-01T06:03:20;29.35;;;15.85;;
69629;SDS011;56857;52.212;5.496;2023-03-01T06:05:46;27.77;;;15.53;;
69629;SDS011;56857;52.212;5.496;2023-03-01T06:08:11;28.67;;;16.02;;
69629;SDS011;56857;52.212;5.496;2023-03-01T06:13:03;26.08;;;15.25;;
69629;SDS011;56857;52.212;5.496;2023-03-01T06:15:29;25.40;;;15.82;;
69629;SDS011;56857;52.212;5.496;2023-03-01T06:17:55;25.98;;;15.25;;
69629;SDS011;56857;52.212;5.496;2023-03-01T06:20:21;25.92;;;15.48;;
69629;SDS011;56857;52.212;5.496;2023-03-01T06:22:48;24.38;;;14.60;;
69629;SDS011;56857;52.212;5.496;2023-03-01T06:27:42;27.08;;;15.15;;
69629;SDS011;56857;52.212;5.496;2023-03-01T06:30:08;27.88;;;15.50;;
69629;SDS011;56857;52.212;5.496;2023-03-01T06:32:36;28.77;;;14.32;;
69629;SDS011;56857;52.212;5.496;2023-03-01T06:35:02;25.63;;;15.30;;
69629;SDS011;56857;52.212;5.496;2023-03-01T06:37:30;28.23;;;16.42;;
69629;SDS011;56857;52.212;5.496;2023-03-01T06:39:56;26.33;;;16.52;;
69629;SDS011;56857;52.212;5.496;2023-03-01T06:42:21;31.03;;;16.20;;
69629;SDS011;56857;52.212;5.496;2023-03-01T06:44:46;25.70;;;15.35;;
69629;SDS011;56857;52.212;5.496;2023-03-01T06:47:12;25.08;;;15.52;;
69629;SDS011;56857;52.212;5.496;2023-03-01T06:49:37;25.48;;;15.68;;
69629;SDS011;56857;52.212;5.496;2023-03-01T06:52:11;26.83;;;15.43;;
69629;SDS011;56857;52.212;5.496;2023-03-01T06:54:36;30.05;;;17.75;;
69629;SDS011;56857;52.212;5.496;2023-03-01T06:59:27;26.00;;;15.20;;
69629;SDS011;56857;52.212;5.496;2023-03-01T07:01:53;26.95;;;14.82;;
69629;SDS011;56857;52.212;5.496;2023-03-01T07:04:18;28.88;;;16.10;;
69629;SDS011;56857;52.212;5.496;2023-03-01T07:06:44;27.50;;;15.38;;
69629;SDS011;56857;52.212;5.496;2023-03-01T07:09:09;25.20;;;15.63;;
69629;SDS011;56857;52.212;5.496;2023-03-01T07:11:34;25.73;;;16.15;;
69629;SDS011;56857;52.212;5.496;2023-03-01T07:16:25;29.53;;;15.57;;
69629;SDS011;56857;52.212;5.496;2023-03-01T07:18:51;32.10;;;17.15;;
69629;SDS011;56857;52.212;5.496;2023-03-01T07:21:16;38.10;;;20.00;;
69629;SDS011;56857;52.212;5.496;2023-03-01T07:23:42;33.37;;;18.07;;
69629;SDS011;56857;52.212;5.496;2023-03-01T07:26:08;32.45;;;18.13;;
69629;SDS011;56857;52.212;5.496;2023-03-01T07:31:02;41.38;;;21.63;;
69629;SDS011;56857;52.212;5.496;2023-03-01T07:33:28;43.00;;;26.13;;
69629;SDS011;56857;52.212;5.496;2023-03-01T07:38:23;29.00;;;16.58;;
69629;SDS011;56857;52.212;5.496;2023-03-01T07:40:48;33.53;;;19.02;;
69629;SDS011;56857;52.212;5.496;2023-03-01T07:43:13;32.85;;;18.83;;
69629;SDS011;56857;52.212;5.496;2023-03-01T07:45:44;27.35;;;15.70;;
69629;SDS011;56857;52.212;5.496;2023-03-01T07:48:10;27.33;;;15.38;;
69629;SDS011;56857;52.212;5.496;2023-03-01T07:53:03;28.23;;;14.50;;
69629;SDS011;56857;52.212;5.496;2023-03-01T07:55:29;26.42;;;15.43;;
69629;SDS011;56857;52.212;5.496;2023-03-01T08:00:19;27.40;;;14.23;;
69629;SDS011;56857;52.212;5.496;2023-03-01T08:02:44;26.08;;;14.68;;
69629;SDS011;56857;52.212;5.496;2023-03-01T08:07:35;23.93;;;14.07;;
69629;SDS011;56857;52.212;5.496;2023-03-01T08:12:26;23.17;;;13.35;;
69629;SDS011;56857;52.212;5.496;2023-03-01T08:14:51;22.15;;;12.65;;
69629;SDS011;56857;52.212;5.496;2023-03-01T08:19:42;25.37;;;13.73;;
69629;SDS011;56857;52.212;5.496;2023-03-01T08:24:33;23.40;;;12.27;;
69629;SDS011;56857;52.212;5.496;2023-03-01T08:29:23;22.80;;;12.10;;
69629;SDS011;56857;52.212;5.496;2023-03-01T08:34:15;20.50;;;11.93;;
69629;SDS011;56857;52.212;5.496;2023-03-01T08:36:42;22.00;;;12.52;;
69629;SDS011;56857;52.212;5.496;2023-03-01T08:39:10;24.00;;;12.38;;
69629;SDS011;56857;52.212;5.496;2023-03-01T08:41:37;24.90;;;13.07;;
69629;SDS011;56857;52.212;5.496;2023-03-01T08:46:29;28.73;;;11.63;;
69629;SDS011;56857;52.212;5.496;2023-03-01T08:49:06;22.85;;;11.10;;
69629;SDS011;56857;52.212;5.496;2023-03-01T08:51:33;20.65;;;10.60;;
69629;SDS011;56857;52.212;5.496;2023-03-01T08:56:24;18.25;;;10.32;;
69629;SDS011;56857;52.212;5.496;2023-03-01T09:01:15;18.90;;;11.23;;
69629;SDS011;56857;52.212;5.496;2023-03-01T09:03:42;19.65;;;10.55;;
69629;SDS011;56857;52.212;5.496;2023-03-01T09:06:09;18.45;;;10.45;;
69629;SDS011;56857;52.212;5.496;2023-03-01T09:08:38;18.20;;;10.68;;
69629;SDS011;56857;52.212;5.496;2023-03-01T09:11:06;19.17;;;10.25;;
69629;SDS011;56857;52.212;5.496;2023-03-01T09:13:49;22.30;;;11.68;;
69629;SDS011;56857;52.212;5.496;2023-03-01T09:19:21;15.60;;;9.02;;
69629;SDS011;56857;52.212;5.496;2023-03-01T09:21:46;17.38;;;10.60;;
69629;SDS011;56857;52.212;5.496;2023-03-01T09:24:31;16.45;;;9.38;;
69629;SDS011;56857;52.212;5.496;2023-03-01T09:26:56;19.90;;;10.15;;
69629;SDS011;56857;52.212;5.496;2023-03-01T09:29:22;15.50;;;9.15;;
69629;SDS011;56857;52.212;5.496;2023-03-01T09:31:57;16.38;;;8.73;;
69629;SDS011;56857;52.212;5.496;2023-03-01T09:34:22;15.95;;;9.48;;
69629;SDS011;56857;52.212;5.496;2023-03-01T09:36:49;16.08;;;8.23;;
69629;SDS011;56857;52.212;5.496;2023-03-01T09:39:14;13.23;;;7.10;;
69629;SDS011;56857;52.212;5.496;2023-03-01T09:41:45;14.88;;;7.10;;
69629;SDS011;56857;52.212;5.496;2023-03-01T09:47:22;13.38;;;7.03;;
69629;SDS011;56857;52.212;5.496;2023-03-01T09:55:31;12.52;;;4.88;;
69629;SDS011;56857;52.212;5.496;2023-03-01T10:06:38;10.73;;;4.30;;
69629;SDS011;56857;52.212;5.496;2023-03-01T10:09:16;8.55;;;3.40;;
69629;SDS011;56857;52.212;5.496;2023-03-01T10:20:18;9.88;;;4.10;;
69629;SDS011;56857;52.212;5.496;2023-03-01T10:23:03;8.73;;;4.05;;
69629;SDS011;56857;52.212;5.496;2023-03-01T10:31:04;7.13;;;3.28;;
69629;SDS011;56857;52.212;5.496;2023-03-01T10:33:31;8.00;;;3.55;;
69629;SDS011;56857;52.212;5.496;2023-03-01T10:36:00;7.28;;;3.03;;
69629;SDS011;56857;52.212;5.496;2023-03-01T10:38:26;7.38;;;3.80;;
69629;SDS011;56857;52.212;5.496;2023-03-01T10:40:57;7.85;;;3.40;;
69629;SDS011;56857;52.212;5.496;2023-03-01T10:43:25;6.70;;;3.22;;
69629;SDS011;56857;52.212;5.496;2023-03-01T10:45:57;9.18;;;3.47;;
69629;SDS011;56857;52.212;5.496;2023-03-01T10:48:23;7.90;;;3.42;;
69629;SDS011;56857;52.212;5.496;2023-03-01T10:55:58;7.68;;;3.20;;
69629;SDS011;56857;52.212;5.496;2023-03-01T10:58:28;8.20;;;3.25;;
69629;SDS011;56857;52.212;5.496;2023-03-01T11:01:05;6.70;;;3.05;;
69629;SDS011;56857;52.212;5.496;2023-03-01T11:03:39;7.53;;;3.63;;
69629;SDS011;56857;52.212;5.496;2023-03-01T11:08:43;6.18;;;2.70;;
69629;SDS011;56857;52.212;5.496;2023-03-01T11:11:18;7.57;;;3.67;;
69629;SDS011;56857;52.212;5.496;2023-03-01T11:13:51;7.57;;;3.17;;
69629;SDS011;56857;52.212;5.496;2023-03-01T11:16:29;6.30;;;2.70;;
69629;SDS011;56857;52.212;5.496;2023-03-01T11:18:59;9.02;;;3.75;;
69629;SDS011;56857;52.212;5.496;2023-03-01T11:21:30;6.25;;;3.00;;
69629;SDS011;56857;52.212;5.496;2023-03-01T11:23:59;7.40;;;3.38;;
69629;SDS011;56857;52.212;5.496;2023-03-01T11:26:26;6.13;;;2.80;;
69629;SDS011;56857;52.212;5.496;2023-03-01T11:28:54;7.45;;;2.95;;
69629;SDS011;56857;52.212;5.496;2023-03-01T11:31:23;5.22;;;2.60;;
69629;SDS011;56857;52.212;5.496;2023-03-01T11:33:53;6.97;;;3.50;;
69629;SDS011;56857;52.212;5.496;2023-03-01T11:39:38;7.22;;;3.30;;
69629;SDS011;56857;52.212;5.496;2023-03-01T11:44:46;8.63;;;3.70;;
69629;SDS011;56857;52.212;5.496;2023-03-01T11:47:24;7.80;;;3.45;;
69629;SDS011;56857;52.212;5.496;2023-03-01T11:52:55;7.72;;;3.63;;
69629;SDS011;56857;52.212;5.496;2023-03-01T11:55:40;9.80;;;4.25;;
69629;SDS011;56857;52.212;5.496;2023-03-01T11:58:23;8.25;;;3.65;;
69629;SDS011;56857;52.212;5.496;2023-03-01T12:01:07;13.30;;;3.65;;
69629;SDS011;56857;52.212;5.496;2023-03-01T12:03:56;8.23;;;3.88;;
69629;SDS011;56857;52.212;5.496;2023-03-01T12:15:09;9.40;;;4.05;;
69629;SDS011;56857;52.212;5.496;2023-03-01T12:25:40;9.55;;;3.95;;
69629;SDS011;56857;52.212;5.496;2023-03-01T12:42:27;8.13;;;3.63;;
69629;SDS011;56857;52.212;5.496;2023-03-01T12:50:26;7.47;;;3.53;;
69629;SDS011;56857;52.212;5.496;2023-03-01T12:53:00;6.65;;;3.42;;
69629;SDS011;56857;52.212;5.496;2023-03-01T12:55:29;7.38;;;3.38;;
69629;SDS011;56857;52.212;5.496;2023-03-01T13:09:31;7.90;;;3.58;;
69629;SDS011;56857;52.212;5.496;2023-03-01T13:17:49;8.30;;;3.65;;
69629;SDS011;56857;52.212;5.496;2023-03-01T13:20:45;9.63;;;4.22;;
69629;SDS011;56857;52.212;5.496;2023-03-01T13:30:59;7.15;;;3.47;;
69629;SDS011;56857;52.212;5.496;2023-03-01T13:35:59;9.32;;;3.92;;
69629;SDS011;56857;52.212;5.496;2023-03-01T13:41:06;8.60;;;3.75;;
69629;SDS011;56857;52.212;5.496;2023-03-01T13:43:36;7.88;;;3.92;;
69629;SDS011;56857;52.212;5.496;2023-03-01T13:46:24;7.65;;;3.22;;
69629;SDS011;56857;52.212;5.496;2023-03-01T13:48:51;8.55;;;5.05;;
69629;SDS011;56857;52.212;5.496;2023-03-01T13:51:23;8.05;;;4.07;;
69629;SDS011;56857;52.212;5.496;2023-03-01T13:53:52;8.90;;;4.35;;
69629;SDS011;56857;52.212;5.496;2023-03-01T13:56:21;7.18;;;3.50;;
69629;SDS011;56857;52.212;5.496;2023-03-01T13:58:52;9.10;;;3.55;;
69629;SDS011;56857;52.212;5.496;2023-03-01T14:04:00;7.85;;;3.67;;
69629;SDS011;56857;52.212;5.496;2023-03-01T14:06:30;9.25;;;3.42;;
69629;SDS011;56857;52.212;5.496;2023-03-01T14:15:31;8.23;;;3.50;;
69629;SDS011;56857;52.212;5.496;2023-03-01T14:17:51;7.70;;;3.95;;
69629;SDS011;56857;52.212;5.496;2023-03-01T14:20:40;8.73;;;3.72;;
69629;SDS011;56857;52.212;5.496;2023-03-01T14:23:14;8.07;;;3.47;;
69629;SDS011;56857;52.212;5.496;2023-03-01T14:25:50;9.13;;;3.88;;
69629;SDS011;56857;52.212;5.496;2023-03-01T14:28:18;8.70;;;3.83;;
69629;SDS011;56857;52.212;5.496;2023-03-01T14:30:45;9.48;;;3.80;;
69629;SDS011;56857;52.212;5.496;2023-03-01T14:33:23;10.52;;;4.63;;
69629;SDS011;56857;52.212;5.496;2023-03-01T14:35:57;9.63;;;3.88;;
69629;SDS011;56857;52.212;5.496;2023-03-01T14:38:40;7.88;;;4.50;;
69629;SDS011;56857;52.212;5.496;2023-03-01T14:41:32;7.63;;;3.63;;
69629;SDS011;56857;52.212;5.496;2023-03-01T14:43:59;11.93;;;3.80;;
69629;SDS011;56857;52.212;5.496;2023-03-01T14:46:34;8.38;;;3.70;;
69629;SDS011;56857;52.212;5.496;2023-03-01T14:49:05;8.63;;;3.80;;
69629;SDS011;56857;52.212;5.496;2023-03-01T14:51:38;7.50;;;3.53;;
69629;SDS011;56857;52.212;5.496;2023-03-01T14:56:53;7.68;;;3.83;;
69629;SDS011;56857;52.212;5.496;2023-03-01T14:59:23;10.32;;;4.13;;
69629;SDS011;56857;52.212;5.496;2023-03-01T15:01:49;9.63;;;4.15;;
69629;SDS011;56857;52.212;5.496;2023-03-01T15:04:16;7.68;;;4.38;;
69629;SDS011;56857;52.212;5.496;2023-03-01T15:06:44;8.70;;;4.90;;
69629;SDS011;56857;52.212;5.496;2023-03-01T15:09:14;7.43;;;3.60;;
69629;SDS011;56857;52.212;5.496;2023-03-01T15:11:41;7.47;;;3.75;;
69629;SDS011;56857;52.212;5.496;2023-03-01T15:14:51;9.07;;;4.20;;
69629;SDS011;56857;52.212;5.496;2023-03-01T15:16:52;9.07;;;4.25;;
69629;SDS011;56857;52.212;5.496;2023-03-01T15:19:17;10.65;;;5.40;;
69629;SDS011;56857;52.212;5.496;2023-03-01T15:21:44;10.45;;;3.90;;
69629;SDS011;56857;52.212;5.496;2023-03-01T15:26:43;9.87;;;4.93;;
69629;SDS011;56857;52.212;5.496;2023-03-01T15:29:15;11.05;;;4.65;;
69629;SDS011;56857;52.212;5.496;2023-03-01T15:31:50;8.82;;;4.10;;
69629;SDS011;56857;52.212;5.496;2023-03-01T15:36:53;9.18;;;4.30;;
69629;SDS011;56857;52.212;5.496;2023-03-01T15:41:59;8.68;;;4.18;;
69629;SDS011;56857;52.212;5.496;2023-03-01T15:44:26;8.85;;;4.32;;
69629;SDS011;56857;52.212;5.496;2023-03-01T15:46:53;8.43;;;4.45;;
69629;SDS011;56857;52.212;5.496;2023-03-01T15:49:33;9.50;;;4.47;;
69629;SDS011;56857;52.212;5.496;2023-03-01T15:52:03;10.02;;;4.28;;
69629;SDS011;56857;52.212;5.496;2023-03-01T15:54:30;11.32;;;4.80;;
69629;SDS011;56857;52.212;5.496;2023-03-01T15:56:55;10.82;;;4.53;;
69629;SDS011;56857;52.212;5.496;2023-03-01T15:59:21;9.15;;;4.43;;
69629;SDS011;56857;52.212;5.496;2023-03-01T16:01:46;9.52;;;4.03;;
69629;SDS011;56857;52.212;5.496;2023-03-01T16:04:13;10.07;;;4.80;;
69629;SDS011;56857;52.212;5.496;2023-03-01T16:06:40;9.20;;;4.03;;
69629;SDS011;56857;52.212;5.496;2023-03-01T16:09:05;10.27;;;4.20;;
69629;SDS011;56857;52.212;5.496;2023-03-01T16:11:30;9.20;;;4.75;;
69629;SDS011;56857;52.212;5.496;2023-03-01T16:13:56;9.88;;;4.75;;
69629;SDS011;56857;52.212;5.496;2023-03-01T16:16:21;10.45;;;5.55;;
69629;SDS011;56857;52.212;5.496;2023-03-01T16:18:46;7.88;;;3.72;;
69629;SDS011;56857;52.212;5.496;2023-03-01T16:21:16;9.10;;;4.38;;
69629;SDS011;56857;52.212;5.496;2023-03-01T16:23:45;7.40;;;4.13;;
69629;SDS011;56857;52.212;5.496;2023-03-01T16:26:11;9.43;;;3.75;;
69629;SDS011;56857;52.212;5.496;2023-03-01T16:28:37;9.63;;;4.70;;
69629;SDS011;56857;52.212;5.496;2023-03-01T16:31:03;8.67;;;4.40;;
69629;SDS011;56857;52.212;5.496;2023-03-01T16:33:57;9.10;;;5.15;;
69629;SDS011;56857;52.212;5.496;2023-03-01T16:36:26;10.45;;;4.65;;
69629;SDS011;56857;52.212;5.496;2023-03-01T16:38:55;9.10;;;4.57;;
69629;SDS011;56857;52.212;5.496;2023-03-01T16:41:24;11.25;;;4.72;;
69629;SDS011;56857;52.212;5.496;2023-03-01T16:43:49;16.05;;;7.10;;
69629;SDS011;56857;52.212;5.496;2023-03-01T16:46:17;8.80;;;5.35;;
69629;SDS011;56857;52.212;5.496;2023-03-01T16:48:50;12.52;;;5.20;;
69629;SDS011;56857;52.212;5.496;2023-03-01T16:51:16;8.80;;;4.85;;
69629;SDS011;56857;52.212;5.496;2023-03-01T16:53:42;10.05;;;4.82;;
69629;SDS011;56857;52.212;5.496;2023-03-01T16:56:08;10.82;;;4.63;;
69629;SDS011;56857;52.212;5.496;2023-03-01T16:58:35;11.48;;;5.07;;
69629;SDS011;56857;52.212;5.496;2023-03-01T17:01:12;9.32;;;4.70;;
69629;SDS011;56857;52.212;5.496;2023-03-01T17:03:40;9.98;;;5.13;;
69629;SDS011;56857;52.212;5.496;2023-03-01T17:06:09;10.65;;;5.78;;
69629;SDS011;56857;52.212;5.496;2023-03-01T17:08:37;10.35;;;5.10;;
69629;SDS011;56857;52.212;5.496;2023-03-01T17:11:11;9.68;;;5.13;;
69629;SDS011;56857;52.212;5.496;2023-03-01T17:13:39;11.18;;;4.80;;
69629;SDS011;56857;52.212;5.496;2023-03-01T17:16:05;8.80;;;4.88;;
69629;SDS011;56857;52.212;5.496;2023-03-01T17:18:33;9.45;;;4.80;;
69629;SDS011;56857;52.212;5.496;2023-03-01T17:20:58;10.68;;;4.78;;
69629;SDS011;56857;52.212;5.496;2023-03-01T17:23:24;10.85;;;5.70;;
69629;SDS011;56857;52.212;5.496;2023-03-01T17:25:51;11.40;;;6.13;;
69629;SDS011;56857;52.212;5.496;2023-03-01T17:28:17;10.15;;;5.40;;
69629;SDS011;56857;52.212;5.496;2023-03-01T17:30:44;11.07;;;5.60;;
69629;SDS011;56857;52.212;5.496;2023-03-01T17:33:10;17.25;;;9.00;;
69629;SDS011;56857;52.212;5.496;2023-03-01T17:35:36;11.52;;;6.25;;
69629;SDS011;56857;52.212;5.496;2023-03-01T17:38:02;14.50;;;6.18;;
69629;SDS011;56857;52.212;5.496;2023-03-01T17:40:29;10.90;;;5.47;;
69629;SDS011;56857;52.212;5.496;2023-03-01T17:42:55;13.13;;;9.30;;
69629;SDS011;56857;52.212;5.496;2023-03-01T17:45:24;11.10;;;5.38;;
69629;SDS011;56857;52.212;5.496;2023-03-01T17:47:49;11.80;;;6.85;;
69629;SDS011;56857;52.212;5.496;2023-03-01T17:50:17;14.10;;;7.45;;
69629;SDS011;56857;52.212;5.496;2023-03-01T17:52:42;12.57;;;6.63;;
69629;SDS011;56857;52.212;5.496;2023-03-01T17:55:08;16.58;;;7.10;;
69629;SDS011;56857;52.212;5.496;2023-03-01T17:57:40;19.55;;;9.75;;
69629;SDS011;56857;52.212;5.496;2023-03-01T18:00:08;16.90;;;9.88;;
69629;SDS011;56857;52.212;5.496;2023-03-01T18:02:35;21.10;;;10.77;;
69629;SDS011;56857;52.212;5.496;2023-03-01T18:05:00;13.85;;;7.80;;
69629;SDS011;56857;52.212;5.496;2023-03-01T18:07:26;17.42;;;9.70;;
69629;SDS011;56857;52.212;5.496;2023-03-01T18:09:52;16.40;;;9.00;;
69629;SDS011;56857;52.212;5.496;2023-03-01T18:12:17;16.25;;;9.07;;
69629;SDS011;56857;52.212;5.496;2023-03-01T18:14:43;13.82;;;7.93;;
69629;SDS011;56857;52.212;5.496;2023-03-01T18:17:08;12.15;;;7.18;;
69629;SDS011;56857;52.212;5.496;2023-03-01T18:19:37;11.85;;;7.28;;
69629;SDS011;56857;52.212;5.496;2023-03-01T18:22:03;13.10;;;7.25;;
69629;SDS011;56857;52.212;5.496;2023-03-01T18:24:28;13.40;;;7.40;;
69629;SDS011;56857;52.212;5.496;2023-03-01T18:26:53;15.38;;;7.47;;
69629;SDS011;56857;52.212;5.496;2023-03-01T18:29:19;14.63;;;7.53;;
69629;SDS011;56857;52.212;5.496;2023-03-01T18:31:44;15.20;;;8.75;;
69629;SDS011;56857;52.212;5.496;2023-03-01T18:34:10;16.85;;;8.00;;
69629;SDS011;56857;52.212;5.496;2023-03-01T18:36:36;13.93;;;7.80;;
69629;SDS011;56857;52.212;5.496;2023-03-01T18:39:02;15.32;;;8.15;;
69629;SDS011;56857;52.212;5.496;2023-03-01T18:41:29;13.68;;;7.82;;
69629;SDS011;56857;52.212;5.496;2023-03-01T18:43:55;15.93;;;8.73;;
69629;SDS011;56857;52.212;5.496;2023-03-01T18:46:20;14.63;;;8.20;;
69629;SDS011;56857;52.212;5.496;2023-03-01T18:48:46;15.18;;;8.13;;
69629;SDS011;56857;52.212;5.496;2023-03-01T18:51:13;13.73;;;8.00;;
69629;SDS011;56857;52.212;5.496;2023-03-01T18:53:41;16.27;;;9.23;;
69629;SDS011;56857;52.212;5.496;2023-03-01T18:56:07;15.52;;;8.15;;
69629;SDS011;56857;52.212;5.496;2023-03-01T18:58:33;15.98;;;8.80;;
69629;SDS011;56857;52.212;5.496;2023-03-01T19:00:59;17.88;;;11.57;;
69629;SDS011;56857;52.212;5.496;2023-03-01T19:03:24;21.77;;;13.02;;
69629;SDS011;56857;52.212;5.496;2023-03-01T19:05:52;20.20;;;11.00;;
69629;SDS011;56857;52.212;5.496;2023-03-01T19:08:18;20.00;;;11.52;;
69629;SDS011;56857;52.212;5.496;2023-03-01T19:10:53;15.55;;;10.57;;
69629;SDS011;56857;52.212;5.496;2023-03-01T19:13:19;15.38;;;10.07;;
69629;SDS011;56857;52.212;5.496;2023-03-01T19:15:49;22.35;;;13.60;;
69629;SDS011;56857;52.212;5.496;2023-03-01T19:18:14;16.30;;;8.82;;